< Typhoon 201331 2014 Season Typhoon 201402 >
Typhoon 201401 (LINGLING)
General InformationDetailed Track InformationTrack Information on Google MapsForecast History on Google MapsAccess Analytics MapList of All Images || NewsDisaster Info.WeblogTrackbackTyphoon FrontTwiphoonTyphoon Now!Typhoon ImaginationDisaster Info. XMLResourceGoogle EarthGE AnimationAtom FeedGeoJSON
Detalied Best Track Wind (Time Zone = UTC)
Year Month Day Hour Lat. Long. Wind (kt) Gust (kt) Direc. of Major Storm Axis Radius of Major Storm Axis (nm) Radius of Minor Storm Axis (nm) Direc. of Major Gale Axis Radius of Major Gale Axis (nm) Radius of Minor Gale Axis (nm) Image
2014 1 15 00 9.6 129.2 0 0 - - - - - - Image
2014 1 15 06 9.6 129.2 0 0 - - - - - - Image
2014 1 15 12 9.7 129.0 0 0 - - - - - - Image
2014 1 15 18 9.8 128.9 0 0 - - - - - - Image
2014 1 16 00 9.8 128.8 0 0 - - - - - - Image
2014 1 16 06 9.7 128.6 0 0 - - - - - - Image
2014 1 16 12 9.5 128.5 0 0 - - - - - - Image
2014 1 16 18 9.3 128.3 0 0 - - - - - - Image
2014 1 17 00 9.3 128.3 0 0 - - - - - - Image
2014 1 17 06 9.7 127.9 0 0 - - - - - - Image
2014 1 17 12 9.7 127.4 0 0 - - - - - - Image
2014 1 17 18 9.7 127.4 0 0 - - - - - - Image
2014 1 18 00 9.7 127.4 35 0 - - - NW 150 90 Image
2014 1 18 06 9.7 127.4 35 0 - - - NW 150 90 Image
2014 1 18 12 9.7 127.4 35 0 - - - NW 150 90 Image
2014 1 18 18 9.4 127.4 35 0 - - - NW 150 90 Image
2014 1 19 00 9.2 127.5 35 0 - - - NW 150 90 Image
2014 1 19 06 9.0 127.5 35 0 - - - NW 150 90 Image
2014 1 19 12 8.7 127.7 35 0 - - - NW 200 90 Image
2014 1 19 18 8.2 127.8 35 0 - - - NW 200 90 Image
2014 1 20 00 7.2 128.3 0 0 - - - - - - Image
2014 1 20 06 6.3 129.0 0 0 - - - - - - Image
Japan Meteorological Agency Best Track Data | Correction Date : 2014-02-17
< Typhoon 201331 2014 Season Typhoon 201402 >

Help